createdAt,value
2023-01-30T00:01:26.057Z,72.40
2023-01-30T00:03:53.225Z,72.51
2023-01-30T00:06:20.485Z,72.32
2023-01-30T00:08:47.625Z,72.27
2023-01-30T00:11:16.617Z,72.20
2023-01-30T00:13:43.966Z,72.59
2023-01-30T00:16:11.295Z,72.61
2023-01-30T00:18:39.751Z,72.68
2023-01-30T00:21:09.206Z,72.44
2023-01-30T00:23:36.753Z,72.38
2023-01-30T00:26:04.815Z,72.41
2023-01-30T00:28:32.023Z,72.73
2023-01-30T00:30:59.336Z,72.92
2023-01-30T00:33:26.966Z,72.69
2023-01-30T00:35:55.595Z,73.18
2023-01-30T00:38:23.077Z,72.78
2023-01-30T00:40:50.501Z,73.10
2023-01-30T00:43:38.120Z,73.04
2023-01-30T00:46:31.404Z,72.93
2023-01-30T00:48:58.445Z,73.58
2023-01-30T00:51:25.484Z,73.51
2023-01-30T00:53:52.535Z,73.61
2023-01-30T00:56:19.746Z,73.83
2023-01-30T00:58:46.855Z,73.58
2023-01-30T01:01:14.005Z,73.79
2023-01-30T01:03:41.070Z,74.23
2023-01-30T01:06:08.323Z,74.29
2023-01-30T01:08:35.723Z,74.40
2023-01-30T01:11:03.329Z,74.14
2023-01-30T01:13:30.954Z,74.41
2023-01-30T01:15:58.264Z,74.33
2023-01-30T01:18:25.636Z,74.52
2023-01-30T01:20:52.805Z,74.69
2023-01-30T01:23:20.161Z,75.01
2023-01-30T01:25:47.273Z,74.94
2023-01-30T01:28:14.424Z,75.11
2023-01-30T01:30:41.533Z,75.67
2023-01-30T01:33:08.767Z,76.21
2023-01-30T01:35:40.734Z,76.59
2023-01-30T01:38:08.029Z,76.32
2023-01-30T01:40:53.641Z,76.16
2023-01-30T01:43:24.105Z,76.20
2023-01-30T01:45:55.189Z,76.19
2023-01-30T01:48:27.095Z,76.14
2023-01-30T01:50:58.446Z,76.16
2023-01-30T01:53:30.001Z,76.37
2023-01-30T01:55:59.428Z,75.88
2023-01-30T01:58:31.253Z,75.76
2023-01-30T02:00:59.530Z,75.73
2023-01-30T02:03:29.398Z,75.67
2023-01-30T02:06:00.050Z,76.09
2023-01-30T02:08:37.285Z,76.44
2023-01-30T02:11:28.771Z,76.85
2023-01-30T02:13:57.319Z,76.60
2023-01-30T02:16:24.371Z,76.57
2023-01-30T02:18:52.032Z,76.57
2023-01-30T02:21:42.776Z,76.76
2023-01-30T02:24:42.723Z,76.77
2023-01-30T02:27:47.742Z,76.45
2023-01-30T02:30:48.928Z,76.64
2023-01-30T02:33:33.123Z,76.90
2023-01-30T02:36:26.071Z,76.24
2023-01-30T02:39:26.644Z,76.47
2023-01-30T02:42:23.757Z,76.18
2023-01-30T02:44:59.379Z,76.24
2023-01-30T02:47:36.526Z,75.91
2023-01-30T02:50:17.475Z,75.83
2023-01-30T02:52:44.586Z,76.42
2023-01-30T02:55:26.800Z,76.20
2023-01-30T02:57:54.171Z,75.96
2023-01-30T03:00:39.836Z,75.97
2023-01-30T03:03:26.363Z,75.60
2023-01-30T03:06:25.281Z,75.81
2023-01-30T03:09:14.566Z,75.33
2023-01-30T03:11:49.502Z,75.70
2023-01-30T03:14:26.275Z,75.95
2023-01-30T03:16:55.177Z,75.77
2023-01-30T03:19:22.866Z,75.90
2023-01-30T03:21:49.975Z,75.75
2023-01-30T03:24:17.450Z,76.20
2023-01-30T03:26:49.117Z,76.04
2023-01-30T03:29:16.267Z,75.33
2023-01-30T03:31:43.389Z,75.67
2023-01-30T03:34:10.513Z,75.86
2023-01-30T03:36:37.713Z,76.06
2023-01-30T03:39:04.959Z,76.06
2023-01-30T03:41:32.045Z,75.23
2023-01-30T03:43:59.083Z,75.99
2023-01-30T03:46:26.157Z,76.10
2023-01-30T03:48:53.298Z,75.41
2023-01-30T03:51:20.429Z,75.61
2023-01-30T03:53:47.511Z,75.57
2023-01-30T03:56:14.614Z,76.25
2023-01-30T03:58:41.780Z,75.83
2023-01-30T04:01:08.913Z,75.82
2023-01-30T04:03:36.022Z,76.19
2023-01-30T04:06:03.220Z,76.33
2023-01-30T04:08:30.313Z,76.03
2023-01-30T04:10:57.397Z,76.57
2023-01-30T04:13:24.482Z,75.93
2023-01-30T04:15:51.512Z,76.34
2023-01-30T04:18:18.564Z,75.50
2023-01-30T04:20:45.591Z,75.61
2023-01-30T04:23:12.687Z,76.13
2023-01-30T04:25:39.760Z,75.36
2023-01-30T04:28:06.816Z,75.84
2023-01-30T04:30:34.026Z,75.67
2023-01-30T04:33:01.130Z,76.01
2023-01-30T04:35:28.163Z,75.86
2023-01-30T04:37:55.182Z,75.21
2023-01-30T04:40:22.242Z,75.20
2023-01-30T04:42:49.289Z,75.50
2023-01-30T04:45:16.691Z,75.22
2023-01-30T04:47:43.952Z,75.34
2023-01-30T04:50:11.138Z,75.69
2023-01-30T04:52:39.861Z,76.14
2023-01-30T04:55:07.289Z,75.28
2023-01-30T04:57:34.314Z,75.25
2023-01-30T05:00:01.503Z,75.47
2023-01-30T05:02:28.566Z,75.16
2023-01-30T05:04:55.672Z,75.19
2023-01-30T05:07:22.894Z,75.31
2023-01-30T05:09:50.033Z,75.46
2023-01-30T05:12:17.112Z,75.93
2023-01-30T05:14:44.162Z,75.86
2023-01-30T05:17:11.418Z,75.58
2023-01-30T05:19:38.487Z,75.61
2023-01-30T05:22:05.541Z,75.86
2023-01-30T05:24:32.611Z,76.07
2023-01-30T05:26:59.714Z,75.46
2023-01-30T05:29:26.774Z,75.44
2023-01-30T05:31:53.853Z,75.35
2023-01-30T05:34:20.882Z,75.82
2023-01-30T05:36:48.016Z,75.62
2023-01-30T05:39:15.083Z,76.17
2023-01-30T05:41:42.125Z,76.65
2023-01-30T05:44:11.018Z,76.44
2023-01-30T05:46:38.745Z,76.55
2023-01-30T05:49:07.402Z,76.62
2023-01-30T05:51:34.486Z,76.61
2023-01-30T05:54:01.584Z,76.87
2023-01-30T05:56:30.405Z,76.80
2023-01-30T05:58:57.856Z,76.72
2023-01-30T06:01:25.404Z,76.73
2023-01-30T06:03:53.356Z,76.85
2023-01-30T06:06:20.832Z,77.16
2023-01-30T06:08:48.422Z,77.36
2023-01-30T06:11:16.853Z,78.31
2023-01-30T06:13:44.222Z,78.15
2023-01-30T06:16:12.844Z,78.73
2023-01-30T06:18:40.401Z,77.84
2023-01-30T06:21:07.938Z,77.83
2023-01-30T06:23:35.356Z,77.82
2023-01-30T06:26:04.954Z,77.95
2023-01-30T06:28:32.984Z,77.79
2023-01-30T06:31:00.296Z,78.37
2023-01-30T06:33:27.481Z,78.70
2023-01-30T06:35:54.770Z,78.21
2023-01-30T06:38:21.835Z,78.40
2023-01-30T06:40:50.287Z,78.58
2023-01-30T06:43:17.760Z,78.50
2023-01-30T06:45:44.977Z,78.66
2023-01-30T06:48:12.089Z,78.68
2023-01-30T06:50:39.358Z,78.61
2023-01-30T06:53:07.531Z,78.45
2023-01-30T06:55:35.998Z,78.62
2023-01-30T06:58:05.591Z,78.28
2023-01-30T07:00:33.589Z,78.06
2023-01-30T07:03:00.714Z,78.38
2023-01-30T07:05:28.978Z,78.16
2023-01-30T07:07:56.279Z,78.56
2023-01-30T07:10:23.684Z,78.53
2023-01-30T07:12:50.802Z,78.07
2023-01-30T07:15:18.230Z,78.63
2023-01-30T07:17:45.427Z,77.99
2023-01-30T07:20:12.756Z,78.06
2023-01-30T07:22:39.867Z,77.77
2023-01-30T07:25:07.416Z,77.83
2023-01-30T07:27:34.567Z,78.01
2023-01-30T07:30:02.065Z,78.54
2023-01-30T07:32:29.093Z,78.26
2023-01-30T07:34:56.112Z,78.58
2023-01-30T07:37:23.206Z,78.81
2023-01-30T07:39:50.244Z,78.14
2023-01-30T07:42:17.365Z,78.53
2023-01-30T07:44:44.396Z,78.34
2023-01-30T07:47:11.455Z,78.75
2023-01-30T07:49:38.531Z,77.82
2023-01-30T07:52:05.707Z,78.21
2023-01-30T07:54:32.741Z,78.19
2023-01-30T07:57:00.099Z,78.21
2023-01-30T07:59:27.583Z,78.51
2023-01-30T08:01:54.853Z,79.33
2023-01-30T08:04:21.950Z,80.22
2023-01-30T08:06:49.104Z,80.18
2023-01-30T08:09:16.156Z,80.77
2023-01-30T08:11:43.259Z,81.41
2023-01-30T08:14:11.069Z,81.81
2023-01-30T08:16:39.049Z,82.35
2023-01-30T08:19:06.336Z,82.96
2023-01-30T08:21:33.392Z,83.27
2023-01-30T08:24:01.492Z,83.12
2023-01-30T08:26:28.692Z,82.92
2023-01-30T08:28:56.044Z,81.15
2023-01-30T08:31:23.137Z,81.89
2023-01-30T08:33:50.256Z,81.85
2023-01-30T08:36:17.350Z,83.58
2023-01-30T08:38:44.699Z,84.01
2023-01-30T08:41:12.427Z,84.45
2023-01-30T08:43:39.527Z,84.10
2023-01-30T08:46:06.576Z,84.29
2023-01-30T08:48:47.329Z,83.30
2023-01-30T08:51:15.891Z,82.63
2023-01-30T08:53:42.955Z,81.99
2023-01-30T08:56:10.090Z,82.18
2023-01-30T08:58:37.319Z,82.11
2023-01-30T09:01:07.551Z,81.23
2023-01-30T09:03:35.456Z,81.10
2023-01-30T09:06:03.935Z,80.69
2023-01-30T09:08:31.029Z,80.47
2023-01-30T09:10:59.800Z,81.14
2023-01-30T09:13:27.091Z,80.23
2023-01-30T09:15:54.448Z,80.34
2023-01-30T09:18:21.546Z,80.48
2023-01-30T09:20:48.792Z,80.12
2023-01-30T09:23:16.062Z,79.48
2023-01-30T09:25:46.760Z,79.68
2023-01-30T09:28:14.697Z,79.11
2023-01-30T09:30:42.038Z,78.72
2023-01-30T09:33:09.122Z,78.08
2023-01-30T09:35:36.155Z,78.66
2023-01-30T09:38:04.714Z,78.59
2023-01-30T09:40:32.556Z,77.99
2023-01-30T09:43:31.434Z,78.00
2023-01-30T09:46:04.784Z,78.33
2023-01-30T09:48:48.175Z,78.12
2023-01-30T09:51:33.584Z,78.17
2023-01-30T09:54:21.971Z,77.28
2023-01-30T09:56:56.941Z,77.01
2023-01-30T09:59:30.557Z,76.55
2023-01-30T10:02:13.059Z,76.31
2023-01-30T10:04:59.235Z,76.87
2023-01-30T10:08:16.106Z,76.92
2023-01-30T10:10:55.037Z,77.62
2023-01-30T10:13:39.826Z,78.00
2023-01-30T10:16:27.341Z,79.00
2023-01-30T10:19:16.074Z,79.76
2023-01-30T10:22:23.771Z,79.69
2023-01-30T10:25:13.198Z,80.04
2023-01-30T10:27:49.014Z,81.64
2023-01-30T10:30:17.237Z,81.98
2023-01-30T10:32:58.677Z,83.00
2023-01-30T10:35:31.235Z,83.25
2023-01-30T10:38:05.068Z,83.73
2023-01-30T10:40:42.639Z,83.46
2023-01-30T10:43:25.955Z,83.64
2023-01-30T10:46:18.613Z,83.33
2023-01-30T10:48:54.576Z,83.08
2023-01-30T10:51:30.619Z,83.20
2023-01-30T10:54:14.008Z,82.66
2023-01-30T10:57:03.223Z,82.20
2023-01-30T10:59:50.357Z,82.23
2023-01-30T11:02:26.245Z,81.56
2023-01-30T11:05:02.839Z,81.98
2023-01-30T11:07:32.041Z,82.79
2023-01-30T11:09:59.793Z,82.77
2023-01-30T11:12:26.991Z,83.61
2023-01-30T11:15:04.003Z,84.02
2023-01-30T11:17:35.411Z,84.21
2023-01-30T11:20:25.931Z,84.51
2023-01-30T11:23:05.303Z,85.08
2023-01-30T11:25:32.538Z,85.14
2023-01-30T11:28:05.409Z,85.46
2023-01-30T11:30:36.723Z,85.76
2023-01-30T11:33:12.815Z,85.96
2023-01-30T11:35:44.348Z,86.73
2023-01-30T11:38:32.707Z,86.69
2023-01-30T11:41:02.653Z,86.84
2023-01-30T11:43:29.755Z,87.03
2023-01-30T11:45:57.937Z,87.11
2023-01-30T11:48:33.467Z,87.10
2023-01-30T11:51:18.041Z,87.18
2023-01-30T11:53:47.516Z,87.59
2023-01-30T11:56:42.667Z,87.83
2023-01-30T11:59:28.408Z,87.89
2023-01-30T12:02:23.628Z,87.88
2023-01-30T12:04:54.491Z,88.02
2023-01-30T12:07:29.626Z,87.36
2023-01-30T12:09:58.325Z,87.58
2023-01-30T12:12:44.190Z,87.31
2023-01-30T12:15:27.003Z,87.01
2023-01-30T12:18:12.871Z,86.35
2023-01-30T12:20:59.584Z,86.27
2023-01-30T12:23:51.284Z,86.12
2023-01-30T12:26:21.096Z,85.51
2023-01-30T12:28:53.974Z,85.87
2023-01-30T12:31:43.166Z,85.17
2023-01-30T12:34:10.566Z,84.94
2023-01-30T12:37:00.285Z,84.51
2023-01-30T12:39:48.165Z,84.24
2023-01-30T12:42:28.327Z,84.37
2023-01-30T12:45:06.201Z,84.09
2023-01-30T12:47:55.923Z,83.83
2023-01-30T12:50:33.472Z,83.92
2023-01-30T12:53:36.605Z,83.58
2023-01-30T12:56:34.321Z,83.82
2023-01-30T12:59:20.656Z,83.98
2023-01-30T13:01:56.976Z,83.53
2023-01-30T13:04:56.364Z,83.75
2023-01-30T13:07:54.425Z,83.22
2023-01-30T13:10:50.588Z,83.29
2023-01-30T13:13:19.536Z,82.90
2023-01-30T13:16:04.542Z,83.22
2023-01-30T13:18:52.700Z,82.88
2023-01-30T13:21:30.124Z,82.68
2023-01-30T13:24:03.540Z,82.22
2023-01-30T13:26:35.289Z,82.13
2023-01-30T13:29:30.049Z,82.67
2023-01-30T13:32:01.240Z,82.40
2023-01-30T13:34:33.696Z,82.54
2023-01-30T13:37:15.020Z,81.87
2023-01-30T13:39:51.216Z,82.03
2023-01-30T13:42:41.178Z,82.15
2023-01-30T13:45:21.905Z,82.56
2023-01-30T13:48:06.698Z,82.44
2023-01-30T13:50:50.707Z,82.04
2023-01-30T13:53:29.730Z,82.31
2023-01-30T13:56:27.049Z,81.97
2023-01-30T13:59:21.933Z,81.84
2023-01-30T14:02:04.676Z,82.06
2023-01-30T14:04:41.022Z,81.71
2023-01-30T14:07:32.308Z,81.62
2023-01-30T14:10:02.063Z,81.52
2023-01-30T14:12:34.662Z,81.39
2023-01-30T14:15:13.743Z,80.91
2023-01-30T14:18:05.411Z,81.30
2023-01-30T14:20:35.194Z,81.23
2023-01-30T14:23:20.727Z,80.82
2023-01-30T14:25:53.000Z,80.86
2023-01-30T14:28:19.914Z,80.50
2023-01-30T14:30:49.320Z,80.53
2023-01-30T14:33:19.273Z,80.90
2023-01-30T14:36:02.012Z,80.69
2023-01-30T14:38:36.218Z,80.54
2023-01-30T14:41:03.252Z,80.40
2023-01-30T14:43:42.539Z,80.43
2023-01-30T14:46:32.655Z,79.77
2023-01-30T14:49:26.372Z,80.35
2023-01-30T14:51:56.202Z,80.46
2023-01-30T14:54:41.049Z,80.46
2023-01-30T14:57:35.210Z,80.17
2023-01-30T15:00:18.356Z,80.16
2023-01-30T15:02:55.337Z,79.76
2023-01-30T15:05:28.827Z,80.06
2023-01-30T15:08:23.884Z,79.76
2023-01-30T15:11:13.362Z,80.22
2023-01-30T15:14:21.825Z,79.19
2023-01-30T15:17:19.566Z,79.42
2023-01-30T15:20:13.366Z,79.45
2023-01-30T15:23:04.091Z,79.13
2023-01-30T15:25:52.142Z,79.01
2023-01-30T15:28:31.028Z,79.39
2023-01-30T15:31:09.481Z,78.99
2023-01-30T15:33:50.286Z,78.90
2023-01-30T15:36:32.328Z,78.43
2023-01-30T15:39:03.809Z,78.11
2023-01-30T15:41:33.097Z,77.93
2023-01-30T15:44:14.273Z,77.70
2023-01-30T15:46:50.296Z,78.18
2023-01-30T15:49:36.314Z,78.46
2023-01-30T15:52:04.457Z,78.04
2023-01-30T15:54:31.837Z,77.98
2023-01-30T15:57:00.165Z,77.71
2023-01-30T15:59:32.748Z,77.50
2023-01-30T16:02:02.304Z,77.48
2023-01-30T16:04:29.988Z,77.79
2023-01-30T16:06:57.950Z,77.55
2023-01-30T16:09:26.027Z,76.81
2023-01-30T16:11:53.122Z,77.02
2023-01-30T16:14:22.008Z,77.17
2023-01-30T16:16:59.029Z,77.12
2023-01-30T16:19:29.610Z,76.92
2023-01-30T16:22:05.457Z,76.45
2023-01-30T16:24:34.421Z,77.18
2023-01-30T16:27:05.347Z,76.21
2023-01-30T16:29:35.379Z,76.39
2023-01-30T16:32:12.262Z,76.49
2023-01-30T16:34:39.734Z,76.33
2023-01-30T16:37:24.079Z,75.72
2023-01-30T16:40:08.848Z,76.30
2023-01-30T16:42:35.924Z,76.48
2023-01-30T16:45:19.696Z,76.22
2023-01-30T16:47:47.454Z,76.35
2023-01-30T16:50:22.650Z,75.93
2023-01-30T16:52:52.022Z,75.49
2023-01-30T16:55:24.065Z,75.32
2023-01-30T16:57:56.401Z,75.08
2023-01-30T17:00:24.567Z,75.75
2023-01-30T17:02:56.031Z,75.93
2023-01-30T17:05:26.388Z,75.78
2023-01-30T17:07:55.631Z,75.27
2023-01-30T17:10:28.659Z,75.59
2023-01-30T17:12:56.103Z,75.70
2023-01-30T17:15:29.118Z,75.57
2023-01-30T17:17:56.382Z,75.71
2023-01-30T17:20:23.862Z,76.04
2023-01-30T17:22:52.930Z,76.15
2023-01-30T17:25:30.504Z,76.34
2023-01-30T17:27:59.034Z,76.91
2023-01-30T17:30:26.145Z,76.65
2023-01-30T17:32:53.213Z,76.64
2023-01-30T17:35:20.499Z,76.54
2023-01-30T17:37:59.613Z,76.58
2023-01-30T17:40:36.573Z,76.49
2023-01-30T17:43:04.272Z,76.70
2023-01-30T17:45:31.438Z,76.66
2023-01-30T17:47:58.534Z,76.91
2023-01-30T17:50:25.792Z,76.50
2023-01-30T17:52:52.816Z,76.83
2023-01-30T17:55:21.443Z,77.03
2023-01-30T17:57:48.946Z,76.92
2023-01-30T18:00:18.894Z,77.06
2023-01-30T18:02:46.357Z,76.76
2023-01-30T18:05:13.719Z,76.83
2023-01-30T18:07:41.120Z,76.66
2023-01-30T18:10:13.543Z,76.51
2023-01-30T18:12:40.572Z,76.52
2023-01-30T18:15:08.241Z,76.79
2023-01-30T18:17:38.328Z,76.09
2023-01-30T18:20:05.683Z,76.80
2023-01-30T18:22:32.751Z,76.76
2023-01-30T18:24:59.818Z,76.58
2023-01-30T18:27:26.831Z,76.58
2023-01-30T18:29:53.941Z,76.68
2023-01-30T18:32:21.020Z,76.65
2023-01-30T18:34:48.131Z,77.18
2023-01-30T18:37:15.203Z,76.95
2023-01-30T18:39:43.459Z,76.89
2023-01-30T18:42:10.800Z,76.89
2023-01-30T18:44:37.994Z,76.89
2023-01-30T18:47:05.258Z,77.06
2023-01-30T18:49:32.327Z,77.13
2023-01-30T18:51:59.503Z,77.21
2023-01-30T18:54:26.539Z,77.28
2023-01-30T18:56:53.598Z,77.23
2023-01-30T18:59:20.758Z,77.10
2023-01-30T19:01:48.138Z,77.06
2023-01-30T19:04:15.374Z,77.21
2023-01-30T19:06:43.565Z,77.17
2023-01-30T19:09:15.638Z,77.15
2023-01-30T19:12:00.953Z,77.26
2023-01-30T19:14:28.153Z,77.37
2023-01-30T19:16:55.255Z,77.40
2023-01-30T19:19:22.372Z,77.94
2023-01-30T19:21:50.999Z,77.54
2023-01-30T19:24:18.056Z,77.90
2023-01-30T19:26:45.228Z,77.67
2023-01-30T19:29:12.393Z,78.05
2023-01-30T19:31:39.567Z,77.95
2023-01-30T19:34:06.741Z,78.10
2023-01-30T19:36:36.035Z,77.95
2023-01-30T19:39:05.866Z,78.29
2023-01-30T19:41:34.969Z,78.11
2023-01-30T19:44:04.140Z,78.05
2023-01-30T19:46:31.271Z,78.00
2023-01-30T19:48:58.893Z,78.16
2023-01-30T19:51:28.484Z,78.16
2023-01-30T19:54:00.882Z,77.97
2023-01-30T19:56:28.932Z,78.42
2023-01-30T19:58:57.331Z,78.11
2023-01-30T20:01:27.262Z,77.88
2023-01-30T20:03:54.440Z,78.20
2023-01-30T20:06:24.499Z,78.54
2023-01-30T20:08:58.506Z,78.42
2023-01-30T20:11:25.856Z,78.98
2023-01-30T20:13:53.468Z,78.97
2023-01-30T20:16:25.119Z,79.04
2023-01-30T20:18:59.911Z,79.56
2023-01-30T20:21:28.433Z,80.92
2023-01-30T20:23:55.912Z,81.20
2023-01-30T20:26:25.495Z,81.33
2023-01-30T20:28:54.453Z,81.65
2023-01-30T20:31:24.359Z,81.31
2023-01-30T20:33:51.686Z,81.34
2023-01-30T20:36:19.586Z,81.23
2023-01-30T20:38:48.090Z,81.38
2023-01-30T20:41:17.730Z,81.36
2023-01-30T20:43:46.968Z,80.88
2023-01-30T20:46:19.927Z,81.14
2023-01-30T20:48:47.395Z,80.63
2023-01-30T20:51:16.719Z,80.55
2023-01-30T20:53:51.374Z,80.55
2023-01-30T20:56:19.548Z,80.34
2023-01-30T20:58:46.953Z,80.22
2023-01-30T21:01:18.105Z,80.18
2023-01-30T21:03:48.000Z,80.05
2023-01-30T21:06:41.363Z,80.00
2023-01-30T21:09:02.638Z,80.17
2023-01-30T21:11:29.778Z,80.01
2023-01-30T21:13:56.920Z,79.88
2023-01-30T21:16:26.577Z,80.03
2023-01-30T21:19:01.323Z,79.77
2023-01-30T21:21:32.773Z,79.68
2023-01-30T21:24:02.369Z,79.63
2023-01-30T21:26:31.321Z,79.84
2023-01-30T21:29:00.602Z,79.74
2023-01-30T21:31:29.589Z,79.61
2023-01-30T21:33:58.302Z,79.33
2023-01-30T21:36:26.147Z,79.18
2023-01-30T21:39:11.869Z,79.30
2023-01-30T21:41:58.753Z,79.45
2023-01-30T21:44:28.859Z,79.06
2023-01-30T21:46:56.889Z,79.42
2023-01-30T21:49:28.307Z,80.08
2023-01-30T21:51:55.694Z,80.61
2023-01-30T21:54:22.799Z,81.25
2023-01-30T21:56:50.075Z,81.70
2023-01-30T21:59:17.480Z,81.92
2023-01-30T22:01:44.634Z,82.33
2023-01-30T22:04:13.930Z,82.31
2023-01-30T22:06:41.812Z,82.27
2023-01-30T22:09:11.338Z,82.28
2023-01-30T22:11:38.818Z,82.59
2023-01-30T22:14:05.957Z,82.65
2023-01-30T22:16:33.723Z,83.00
2023-01-30T22:19:02.963Z,83.05
2023-01-30T22:21:33.462Z,83.28
2023-01-30T22:24:01.837Z,82.88
2023-01-30T22:26:29.005Z,83.52
2023-01-30T22:29:00.212Z,84.00
2023-01-30T22:31:30.845Z,84.27
2023-01-30T22:33:58.092Z,84.71
2023-01-30T22:36:30.597Z,85.54
2023-01-30T22:38:57.656Z,86.14
2023-01-30T22:41:25.939Z,86.21
2023-01-30T22:43:57.459Z,86.77
2023-01-30T22:46:31.323Z,86.75
2023-01-30T22:48:59.991Z,86.62
2023-01-30T22:51:29.459Z,86.33
2023-01-30T22:54:01.736Z,85.55
2023-01-30T22:56:38.684Z,85.49
2023-01-30T22:59:05.952Z,85.85
2023-01-30T23:01:35.087Z,86.56
2023-01-30T23:04:05.525Z,86.19
2023-01-30T23:06:32.638Z,86.23
2023-01-30T23:09:00.797Z,85.94
2023-01-30T23:11:30.289Z,85.91
2023-01-30T23:14:00.049Z,86.00
2023-01-30T23:16:27.934Z,85.98
2023-01-30T23:18:55.085Z,85.64
2023-01-30T23:21:26.010Z,85.92
2023-01-30T23:23:54.726Z,85.54
2023-01-30T23:26:23.762Z,85.25
2023-01-30T23:28:50.974Z,85.45
2023-01-30T23:31:21.046Z,85.63
2023-01-30T23:33:48.209Z,85.28
2023-01-30T23:36:15.345Z,85.07
2023-01-30T23:38:42.392Z,85.26
2023-01-30T23:41:15.857Z,85.49
2023-01-30T23:43:44.297Z,84.88
2023-01-30T23:46:15.941Z,84.84
2023-01-30T23:48:44.560Z,84.86
2023-01-30T23:51:12.215Z,84.61
2023-01-30T23:53:39.925Z,84.46
2023-01-30T23:56:07.613Z,84.90
2023-01-30T23:58:35.183Z,84.63
